Hanzhong, China
Current Conditions -  °F | °C
As of 1:00 AM on Sunday 28 Dec 2014 (Local Time) from ZLXY Reporting Station
Clear Clear  
Wind Chill: 30°   Ceiling: Unl
Heat Index: 34°   Visibility: 4mi
Dew Point: 18°   Wind: 4mph
Humidity: 52%   Direction: 260°W
Pressure: 30.45"   Gusts: NA
Location:  33.13°N, 107.03°E
Report Text: ZLXY 271700Z 26002MPS 6000 NSC 01/M08 Q1031 NOSIG
Loading
Personal Weather Stations






























Interactive Weather Map New forecast layout! Learn more

10-Day Weather Forecast

Advertisements
Track Severe Weather on mobile